Time;durP1;ratioP1;P1;durP2;ratioP2;P2;SDS_P1;SDS_P2;PMS_P1;PMS_P2;Temp;Humidity;BMP_temperature;BMP_pressure;BME280_temperature;BME280_humidity;BME280_pressure;Samples;Min_cycle;Max_cycle;Signal;HPM_P1;HPM_P2
2023/10/11 00:02:32;;;;;;;6.07;2.40;;;;;;;16.51;100.00;100946.50;6277109;28;20048;-74
2023/10/11 00:05:40;;;;;;;5.32;2.60;;;;;;;16.51;100.00;100945.66;6277037;28;20045;-74
2023/10/11 00:08:41;;;;;;;7.45;2.47;;;;;;;16.52;100.00;100944.69;6276908;28;20467;-74
2023/10/11 00:11:43;;;;;;;5.35;2.80;;;;;;;16.59;100.00;100948.59;6276647;28;20060;-74
2023/10/11 00:14:46;;;;;;;11.82;2.92;;;;;;;16.61;100.00;100947.50;6277094;28;20117;-74
2023/10/11 00:17:47;;;;;;;5.22;2.20;;;;;;;16.60;100.00;100947.63;6276803;28;20060;-74
2023/10/11 00:20:52;;;;;;;9.35;2.83;;;;;;;16.65;100.00;100953.44;6276605;28;20080;-74
2023/10/11 00:23:53;;;;;;;11.23;3.60;;;;;;;16.73;100.00;100962.53;6276594;28;20049;-74
2023/10/11 00:26:55;;;;;;;9.13;2.78;;;;;;;16.84;100.00;100947.59;6276406;28;20048;-74
2023/10/11 00:29:58;;;;;;;8.57;2.72;;;;;;;16.84;100.00;100952.91;6275918;28;20135;-74
2023/10/11 00:33:00;;;;;;;7.40;2.70;;;;;;;16.76;100.00;100950.88;6276283;28;20049;-74
2023/10/11 00:36:04;;;;;;;7.97;2.45;;;;;;;16.79;100.00;100941.81;6276340;28;20136;-74
2023/10/11 00:39:07;;;;;;;5.97;2.40;;;;;;;16.74;100.00;100942.16;6276121;28;20370;-74
2023/10/11 00:42:10;;;;;;;6.18;3.15;;;;;;;16.81;100.00;100948.69;6276243;28;20045;-75
2023/10/11 00:45:16;;;;;;;6.25;2.75;;;;;;;16.80;100.00;100946.97;6276059;28;20138;-74
2023/10/11 00:48:19;;;;;;;5.20;2.78;;;;;;;16.82;100.00;100934.47;6276091;28;20174;-74
2023/10/11 00:51:24;;;;;;;8.60;2.70;;;;;;;16.74;100.00;100932.38;6275636;28;20122;-74
2023/10/11 00:54:27;;;;;;;7.30;3.33;;;;;;;16.69;100.00;100934.50;6276197;28;20045;-75
2023/10/11 00:57:28;;;;;;;6.97;3.03;;;;;;;16.81;100.00;100927.47;6275738;28;20052;-75
2023/10/11 01:00:35;;;;;;;7.47;2.55;;;;;;;16.78;100.00;100925.03;6275734;28;20469;-75
2023/10/11 01:03:37;;;;;;;6.43;2.95;;;;;;;16.80;100.00;100931.06;6275735;28;20049;-75
2023/10/11 01:06:40;;;;;;;9.10;2.80;;;;;;;16.78;100.00;100930.34;6274966;28;20060;-75
2023/10/11 01:09:43;;;;;;;5.97;2.33;;;;;;;16.83;100.00;100922.03;6275301;28;20053;-75
2023/10/11 01:12:46;;;;;;;7.63;2.72;;;;;;;16.83;100.00;100924.69;6275491;28;20052;-75
2023/10/11 01:15:47;;;;;;;4.75;2.08;;;;;;;16.89;100.00;100922.38;6276100;28;20056;-74
2023/10/11 01:18:49;;;;;;;4.30;2.13;;;;;;;16.83;100.00;100920.22;6275227;28;20383;-74
2023/10/11 01:21:59;;;;;;;6.78;2.15;;;;;;;16.83;100.00;100925.53;6275302;28;20342;-75
2023/10/11 01:25:01;;;;;;;6.77;3.17;;;;;;;16.89;100.00;100917.06;6275348;28;20426;-74
2023/10/11 01:28:03;;;;;;;6.75;2.60;;;;;;;16.87;100.00;100921.66;6274422;28;20604;-74
2023/10/11 01:31:08;;;;;;;8.95;2.95;;;;;;;16.89;100.00;100926.84;6266649;28;20057;-74
2023/10/11 01:34:13;;;;;;;9.80;3.13;;;;;;;16.97;100.00;100913.84;6275481;28;20136;-74
2023/10/11 01:37:17;;;;;;;10.27;2.88;;;;;;;16.96;100.00;100906.84;6266842;28;20080;-75
2023/10/11 01:40:21;;;;;;;5.07;2.60;;;;;;;16.91;100.00;100912.50;6275051;28;20056;-75
2023/10/11 01:43:23;;;;;;;6.75;2.70;;;;;;;16.92;100.00;100903.56;6271250;28;20038;-75
2023/10/11 01:46:26;;;;;;;6.53;2.65;;;;;;;16.84;100.00;100905.97;6270732;28;20049;-75
2023/10/11 01:49:28;;;;;;;6.50;3.03;;;;;;;16.88;100.00;100909.25;6274938;28;20045;-75
2023/10/11 01:52:34;;;;;;;7.93;3.03;;;;;;;16.81;100.00;100898.25;6275223;28;20084;-74
2023/10/11 01:55:39;;;;;;;14.68;3.20;;;;;;;16.78;100.00;100898.50;6275190;28;20045;-75
2023/10/11 01:58:42;;;;;;;6.50;2.75;;;;;;;16.76;100.00;100894.25;6274838;28;20053;-74
2023/10/11 02:01:54;;;;;;;5.72;2.45;;;;;;;16.68;100.00;100890.38;6268135;28;20045;-75
2023/10/11 02:04:59;;;;;;;8.93;2.67;;;;;;;16.69;100.00;100880.59;6274704;28;20047;-74
2023/10/11 02:08:13;;;;;;;8.18;2.58;;;;;;;16.67;100.00;100891.34;6274901;28;20053;-74
2023/10/11 02:11:15;;;;;;;9.15;3.15;;;;;;;16.66;100.00;100883.47;6274952;28;20060;-75
2023/10/11 02:14:16;;;;;;;6.97;2.72;;;;;;;16.67;100.00;100893.97;6274766;28;20122;-74
2023/10/11 02:17:23;;;;;;;7.40;2.75;;;;;;;16.70;100.00;100885.78;6276048;28;20044;-74
2023/10/11 02:20:25;;;;;;;9.95;2.72;;;;;;;16.68;100.00;100886.88;6279848;28;20056;-75
2023/10/11 02:23:30;;;;;;;8.07;2.92;;;;;;;16.67;100.00;100886.03;6279401;28;20126;-75
2023/10/11 02:26:33;;;;;;;6.07;2.83;;;;;;;16.63;100.00;100892.53;6279507;28;20438;-74
2023/10/11 02:29:35;;;;;;;10.35;2.90;;;;;;;16.60;100.00;100890.09;6278295;28;20071;-75
2023/10/11 02:32:38;;;;;;;5.82;2.47;;;;;;;16.58;100.00;100888.50;6279269;28;20420;-75
2023/10/11 02:35:52;;;;;;;6.00;2.42;;;;;;;16.54;100.00;100885.28;6279255;28;20045;-74
2023/10/11 02:38:55;;;;;;;6.15;2.30;;;;;;;16.51;100.00;100885.50;6278921;28;20069;-75
2023/10/11 02:41:58;;;;;;;10.00;3.00;;;;;;;16.48;100.00;100891.84;6262154;28;20359;-74
2023/10/11 02:45:05;;;;;;;3.88;2.25;;;;;;;16.51;100.00;100885.50;6254033;28;20046;-75
2023/10/11 02:48:10;;;;;;;6.43;3.10;;;;;;;16.57;100.00;100886.81;6254153;28;20100;-74
2023/10/11 02:51:15;;;;;;;7.45;3.70;;;;;;;16.52;100.00;100881.03;6253815;28;20438;-74
2023/10/11 02:54:18;;;;;;;7.88;2.95;;;;;;;16.52;100.00;100881.88;6254185;28;20052;-74
2023/10/11 02:57:19;;;;;;;8.13;3.00;;;;;;;16.47;100.00;100868.94;6253926;28;20049;-74
2023/10/11 03:00:24;;;;;;;8.27;2.72;;;;;;;16.40;100.00;100872.22;6253616;28;20065;-74
2023/10/11 03:03:27;;;;;;;4.55;2.25;;;;;;;16.34;100.00;100876.16;6253693;28;20549;-74
2023/10/11 03:06:35;;;;;;;4.32;2.40;;;;;;;16.29;100.00;100882.75;6253637;28;20436;-74
2023/10/11 03:09:40;;;;;;;4.38;2.53;;;;;;;16.30;100.00;100877.34;6253369;28;20183;-75
2023/10/11 03:12:42;;;;;;;6.63;2.78;;;;;;;16.28;100.00;100875.78;6253782;28;20108;-74
2023/10/11 03:15:46;;;;;;;7.57;2.78;;;;;;;16.30;100.00;100879.16;6253362;28;20456;-74
2023/10/11 03:18:48;;;;;;;9.25;2.75;;;;;;;16.29;100.00;100877.47;6253430;28;20179;-73
2023/10/11 03:21:53;;;;;;;8.50;3.15;;;;;;;16.26;100.00;100878.56;6253190;28;20045;-75
2023/10/11 03:24:59;;;;;;;7.03;3.28;;;;;;;16.25;100.00;100868.88;6253436;28;20575;-74
2023/10/11 03:28:02;;;;;;;4.85;2.67;;;;;;;16.27;100.00;100860.84;6257312;28;20049;-74
2023/10/11 03:31:03;;;;;;;6.05;2.70;;;;;;;16.28;100.00;100858.06;6268745;28;20049;-74
2023/10/11 03:34:10;;;;;;;5.90;2.33;;;;;;;16.25;100.00;100850.31;6277803;28;20049;-74
2023/10/11 03:37:18;;;;;;;7.38;2.40;;;;;;;16.21;100.00;100856.81;6269581;28;20113;-74
2023/10/11 03:40:27;;;;;;;13.35;3.00;;;;;;;16.21;100.00;100849.72;6277465;28;20143;-74
2023/10/11 03:43:32;;;;;;;9.23;2.60;;;;;;;16.27;100.00;100842.28;6277450;28;20449;-74
2023/10/11 03:46:34;;;;;;;8.30;3.45;;;;;;;16.28;100.00;100855.41;6277468;28;20053;-74
2023/10/11 03:49:50;;;;;;;7.13;2.75;;;;;;;16.31;100.00;100849.03;6268749;28;20076;-74
2023/10/11 03:52:52;;;;;;;6.18;2.35;;;;;;;16.35;100.00;100846.03;6277481;28;20115;-74
2023/10/11 03:55:58;;;;;;;14.88;2.83;;;;;;;16.33;100.00;100829.38;6277561;28;20056;-75
2023/10/11 03:59:00;;;;;;;7.00;3.00;;;;;;;16.32;100.00;100840.13;6276978;28;20357;-74
2023/10/11 04:02:02;;;;;;;7.03;2.42;;;;;;;16.28;100.00;100831.53;6276857;28;20052;-74
2023/10/11 04:05:04;;;;;;;9.80;3.13;;;;;;;16.21;100.00;100833.81;6277089;28;20053;-74
2023/10/11 04:08:10;;;;;;;6.78;3.05;;;;;;;16.22;100.00;100835.50;6275756;28;20142;-74
2023/10/11 04:11:17;;;;;;;7.95;3.00;;;;;;;16.23;100.00;100820.44;6270252;28;20057;-75
2023/10/11 04:14:24;;;;;;;9.85;3.20;;;;;;;16.22;100.00;100821.41;6276787;28;20057;-75
2023/10/11 04:17:26;;;;;;;7.05;2.65;;;;;;;16.30;100.00;100815.50;6273118;28;20045;-75
2023/10/11 04:20:32;;;;;;;10.07;2.80;;;;;;;16.26;100.00;100800.78;6272041;28;20103;-74
2023/10/11 04:23:35;;;;;;;7.10;2.47;;;;;;;16.20;100.00;100796.78;6276751;28;20053;-74
2023/10/11 04:26:41;;;;;;;5.97;2.67;;;;;;;16.17;100.00;100805.00;6276503;28;20433;-74
2023/10/11 04:29:42;;;;;;;7.80;2.95;;;;;;;16.16;100.00;100795.34;6313405;22;20466;-72
2023/10/11 04:32:45;;;;;;;9.95;2.78;;;;;;;16.14;100.00;100792.81;6301213;28;20052;-72
2023/10/11 04:35:55;;;;;;;6.88;2.92;;;;;;;16.16;100.00;100801.47;6301234;28;20045;-72
2023/10/11 04:39:03;;;;;;;7.57;3.10;;;;;;;16.22;100.00;100814.28;6301014;28;20342;-72
2023/10/11 04:42:06;;;;;;;12.80;2.88;;;;;;;16.28;100.00;100814.78;6300768;28;20058;-72
2023/10/11 04:45:21;;;;;;;8.00;2.75;;;;;;;16.22;100.00;100813.44;6300871;28;20048;-72
2023/10/11 04:48:32;;;;;;;7.95;3.25;;;;;;;16.19;100.00;100803.91;6301007;28;20152;-72
2023/10/11 04:51:39;;;;;;;7.50;2.22;;;;;;;16.13;100.00;100788.47;6300605;28;20125;-72
2023/10/11 04:54:53;;;;;;;7.68;2.70;;;;;;;16.09;100.00;100791.47;6300881;28;20425;-72
2023/10/11 04:58:04;;;;;;;9.95;2.90;;;;;;;16.07;100.00;100799.53;6300833;28;20054;-72
2023/10/11 05:01:08;;;;;;;8.65;3.08;;;;;;;16.06;100.00;100802.31;6300389;28;20056;-72
2023/10/11 05:04:13;;;;;;;9.05;2.78;;;;;;;16.12;100.00;100804.47;6300560;28;20281;-73
2023/10/11 05:07:19;;;;;;;10.23;3.40;;;;;;;16.07;100.00;100801.34;6300746;28;20048;-72
2023/10/11 05:10:30;;;;;;;6.70;2.45;;;;;;;16.02;100.00;100800.84;6300474;28;20105;-73
2023/10/11 05:13:36;;;;;;;9.93;2.70;;;;;;;15.95;100.00;100793.34;6300661;28;20059;-73
2023/10/11 05:16:44;;;;;;;8.88;3.50;;;;;;;15.93;100.00;100787.31;6301006;28;20125;-73
2023/10/11 05:19:56;;;;;;;9.90;3.47;;;;;;;15.91;100.00;100791.06;6300245;28;20048;-72
2023/10/11 05:23:05;;;;;;;7.65;2.60;;;;;;;15.90;100.00;100795.50;6300703;28;20049;-73
2023/10/11 05:26:36;;;;;;;8.40;2.80;;;;;;;15.88;100.00;100797.41;6300301;28;20186;-73
2023/10/11 05:29:32;;;;;;;5.80;2.58;;;;;;;15.87;100.00;100794.88;6299005;28;20467;-73
2023/10/11 05:32:33;;;;;;;9.13;3.28;;;;;;;15.86;100.00;100803.81;6291593;28;20056;-72
2023/10/11 05:35:59;;;;;;;4.80;2.75;;;;;;;15.92;100.00;100812.13;6300317;28;20048;-72
2023/10/11 05:52:17;;;;;;;9.55;2.95;;;;;;;16.03;100.00;100805.16;6301521;28;20135;-72
2023/10/11 05:55:19;;;;;;;7.65;2.75;;;;;;;15.98;100.00;100789.63;6305049;28;20046;-73
2023/10/11 05:58:20;;;;;;;6.88;2.78;;;;;;;15.89;100.00;100785.84;6305163;28;20056;-73
2023/10/11 06:01:24;;;;;;;11.88;3.17;;;;;;;15.85;100.00;100786.19;6304611;28;20462;-72
2023/10/11 06:04:25;;;;;;;5.97;3.05;;;;;;;15.83;100.00;100786.31;6296218;28;20041;-72
2023/10/11 06:07:35;;;;;;;7.28;3.13;;;;;;;15.82;100.00;100792.59;6304953;28;20075;-71
2023/10/11 06:10:41;;;;;;;8.27;3.28;;;;;;;15.81;100.00;100798.84;6304229;28;20048;-71
2023/10/11 06:13:43;;;;;;;10.05;2.92;;;;;;;15.74;100.00;100802.91;6304764;28;20098;-72
2023/10/11 06:16:55;;;;;;;7.47;2.80;;;;;;;15.83;100.00;100817.28;6304522;28;20182;-74
2023/10/11 06:20:10;;;;;;;7.47;2.33;;;;;;;15.91;100.00;100820.22;6301974;28;20057;-72
2023/10/11 06:23:12;;;;;;;6.20;2.67;;;;;;;15.96;100.00;100834.81;6295929;28;20060;-72
2023/10/11 06:29:29;;;;;;;9.82;2.65;;;;;;;16.03;100.00;100815.78;6298822;28;20352;-72
2023/10/11 06:32:35;;;;;;;8.10;2.58;;;;;;;15.96;100.00;100808.28;6304131;28;20052;-72
2023/10/11 06:35:43;;;;;;;9.30;2.75;;;;;;;15.90;100.00;100807.94;6304085;28;20052;-73
2023/10/11 06:38:44;;;;;;;9.48;2.95;;;;;;;15.87;100.00;100802.84;6303999;28;20044;-72
2023/10/11 06:41:50;;;;;;;6.47;2.70;;;;;;;15.88;100.00;100805.38;6304143;28;20052;-72
2023/10/11 06:44:57;;;;;;;6.78;2.38;;;;;;;15.90;100.00;100803.47;6293979;28;20133;-73
2023/10/11 06:48:06;;;;;;;6.20;3.10;;;;;;;15.95;100.00;100800.47;6303707;28;20052;-72
2023/10/11 06:51:08;;;;;;;8.70;2.65;;;;;;;15.95;100.00;100792.50;6303742;28;20109;-72
2023/10/11 06:54:11;;;;;;;6.47;2.97;;;;;;;16.00;100.00;100794.81;6303613;28;20178;-72
2023/10/11 06:57:16;;;;;;;8.13;3.75;;;;;;;16.01;100.00;100812.41;6303774;28;20068;-72
2023/10/11 07:00:23;;;;;;;7.97;3.05;;;;;;;15.99;100.00;100817.84;6303202;28;20190;-72
2023/10/11 07:03:28;;;;;;;9.95;3.17;;;;;;;16.06;100.00;100808.44;6302517;28;20047;-72
2023/10/11 07:06:30;;;;;;;7.10;2.58;;;;;;;16.13;100.00;100819.44;6295338;28;20325;-72
2023/10/11 07:09:31;;;;;;;10.52;2.85;;;;;;;16.19;100.00;100809.22;6303300;28;20059;-74
2023/10/11 07:12:39;;;;;;;8.25;3.72;;;;;;;16.26;100.00;100811.38;6303055;28;20333;-73
2023/10/11 07:15:42;;;;;;;10.07;3.20;;;;;;;16.25;100.00;100807.88;6303422;28;20420;-74
2023/10/11 07:18:45;;;;;;;11.25;2.58;;;;;;;16.29;100.00;100835.03;6294435;28;20083;-73
2023/10/11 07:21:52;;;;;;;8.65;2.83;;;;;;;16.39;100.00;100820.94;6280984;28;20049;-75
2023/10/11 07:24:56;;;;;;;8.90;2.33;;;;;;;16.44;100.00;100820.59;6293214;28;20054;-73
2023/10/11 07:28:02;;;;;;;7.50;3.33;;;;;;;16.47;100.00;100813.25;6279704;28;20051;-73
2023/10/11 07:31:05;;;;;;;8.93;3.10;;;;;;;16.59;100.00;100832.69;6277770;28;20113;-72
2023/10/11 07:34:09;;;;;;;7.95;2.33;;;;;;;16.53;100.00;100841.09;6292545;28;20044;-72
2023/10/11 07:37:12;;;;;;;10.07;2.70;;;;;;;16.57;100.00;100837.25;6301769;28;20044;-71
2023/10/11 07:40:20;;;;;;;8.70;2.67;;;;;;;16.61;100.00;100833.41;6296473;28;20143;-74
2023/10/11 07:43:25;;;;;;;7.18;2.90;;;;;;;16.67;100.00;100830.31;6289124;28;20056;-71
2023/10/11 07:46:28;;;;;;;5.55;2.53;;;;;;;16.62;100.00;100837.78;6299818;28;20079;-70
2023/10/11 07:49:37;;;;;;;7.72;2.50;;;;;;;16.60;100.00;100834.38;6296959;28;20373;-73
2023/10/11 07:52:40;;;;;;;8.75;2.47;;;;;;;16.71;100.00;100841.50;6291427;28;20297;-71
2023/10/11 07:55:45;;;;;;;6.35;2.60;;;;;;;16.79;100.00;100835.63;6293046;28;20352;-71
2023/10/11 07:58:46;;;;;;;10.07;2.95;;;;;;;16.85;100.00;100849.28;6291341;28;20455;-72
2023/10/11 08:01:48;;;;;;;8.85;3.25;;;;;;;16.92;100.00;100863.75;6291633;28;20044;-73
2023/10/11 08:04:53;;;;;;;10.07;3.90;;;;;;;17.02;100.00;100860.38;6294128;28;20365;-72
2023/10/11 08:07:55;;;;;;;5.80;2.60;;;;;;;17.00;100.00;100841.94;6293593;28;20048;-73
2023/10/11 08:10:56;;;;;;;9.15;2.85;;;;;;;17.05;100.00;100830.94;6297301;28;20055;-73
2023/10/11 08:14:00;;;;;;;5.00;2.45;;;;;;;17.04;100.00;100830.09;6291476;28;20052;-71
2023/10/11 08:17:10;;;;;;;6.82;2.60;;;;;;;17.10;100.00;100828.75;6286296;28;20055;-73
2023/10/11 08:20:16;;;;;;;;;;;;;;;17.04;100.00;100829.25;6285000;28;20370;-73
2023/10/11 08:23:28;;;;;;;7.03;2.63;;;;;;;17.04;100.00;100837.22;6276620;28;19927;-71
2023/10/11 08:26:42;;;;;;;10.98;3.17;;;;;;;17.14;100.00;100838.19;6289492;28;20045;-71
2023/10/11 08:29:43;;;;;;;10.77;3.08;;;;;;;17.13;100.00;100837.34;6292042;28;20053;-71
2023/10/11 08:32:47;;;;;;;6.13;2.58;;;;;;;17.15;100.00;100839.84;6298691;28;20048;-73
2023/10/11 08:35:53;;;;;;;6.15;2.80;;;;;;;17.22;100.00;100843.72;6294631;28;20041;-71
2023/10/11 08:38:55;;;;;;;8.52;2.75;;;;;;;17.17;100.00;100836.13;6299729;28;20060;-71
2023/10/11 08:41:58;;;;;;;7.47;2.78;;;;;;;17.18;100.00;100835.16;6290870;28;20049;-71
2023/10/11 08:45:00;;;;;;;7.65;2.53;;;;;;;17.23;100.00;100837.44;6291511;28;20059;-71
2023/10/11 08:48:03;;;;;;;9.85;3.15;;;;;;;17.30;100.00;100837.78;6284556;28;20120;-72
2023/10/11 08:51:10;;;;;;;5.68;2.50;;;;;;;17.37;100.00;100845.16;6286542;28;20049;-72
2023/10/11 08:54:16;;;;;;;9.00;3.03;;;;;;;17.46;100.00;100847.06;6283285;28;20056;-72
2023/10/11 08:57:23;;;;;;;8.55;2.42;;;;;;;17.41;100.00;100845.75;6275977;28;20052;-72
2023/10/11 09:00:31;;;;;;;10.05;2.88;;;;;;;17.39;100.00;100839.69;6278983;28;20056;-71
2023/10/11 09:03:40;;;;;;;6.27;2.83;;;;;;;17.36;100.00;100834.66;6287717;28;20071;-71
2023/10/11 09:06:44;;;;;;;10.30;2.78;;;;;;;17.36;100.00;100832.00;6284559;28;20346;-72
2023/10/11 09:09:50;;;;;;;10.15;3.28;;;;;;;17.39;100.00;100819.28;6295366;28;20186;-71
2023/10/11 09:12:56;;;;;;;4.47;2.38;;;;;;;17.42;100.00;100812.91;6292028;28;20393;-71
2023/10/11 09:15:57;;;;;;;7.95;3.15;;;;;;;17.41;100.00;100806.75;6300348;28;20040;-71
2023/10/11 09:19:05;;;;;;;6.57;2.75;;;;;;;17.45;100.00;100805.53;6291724;28;20048;-71
2023/10/11 09:22:18;;;;;;;6.22;2.85;;;;;;;17.57;100.00;100802.81;6299373;28;20051;-71
2023/10/11 09:25:23;;;;;;;6.68;3.22;;;;;;;17.64;100.00;100801.38;6297510;28;20449;-71
2023/10/11 09:28:26;;;;;;;7.97;3.22;;;;;;;17.67;100.00;100791.34;6292355;28;20360;-72
2023/10/11 09:31:27;;;;;;;10.80;2.53;;;;;;;17.70;100.00;100793.72;6294382;28;20459;-72
2023/10/11 09:34:30;;;;;;;7.47;3.40;;;;;;;17.78;100.00;100790.47;6280488;28;20041;-71
2023/10/11 09:37:33;;;;;;;8.35;2.80;;;;;;;17.85;100.00;100793.44;6291741;28;20048;-71
2023/10/11 09:40:35;;;;;;;6.15;2.88;;;;;;;17.87;100.00;100796.84;6274867;28;20045;-73
2023/10/11 09:43:42;;;;;;;7.13;2.25;;;;;;;17.88;100.00;100796.69;6280860;28;20047;-71
2023/10/11 09:46:43;;;;;;;9.05;2.70;;;;;;;18.01;100.00;100812.47;6299572;28;20045;-71
2023/10/11 09:49:47;;;;;;;6.63;2.83;;;;;;;18.11;100.00;100802.75;6287954;28;20353;-70
2023/10/11 09:52:51;;;;;;;13.38;3.22;;;;;;;18.19;100.00;100797.63;6279928;28;20493;-72
2023/10/11 09:55:59;;;;;;;13.90;3.10;;;;;;;18.30;100.00;100803.84;6294415;28;20048;-71
2023/10/11 09:59:19;;;;;;;13.23;3.63;;;;;;;18.32;100.00;100807.25;6297422;28;20056;-70
2023/10/11 10:02:26;;;;;;;5.95;2.70;;;;;;;18.38;100.00;100809.38;6289563;28;20510;-70
2023/10/11 10:06:05;;;;;;;7.60;2.58;;;;;;;18.49;100.00;100818.16;6293285;28;20041;-73
2023/10/11 10:09:23;;;;;;;6.03;2.70;;;;;;;18.49;100.00;100818.16;6291054;28;20436;-71
2023/10/11 10:12:25;;;;;;;16.65;3.90;;;;;;;18.55;100.00;100826.56;6292089;28;20052;-72
2023/10/11 10:15:32;;;;;;;7.15;3.05;;;;;;;18.65;100.00;100824.81;6291261;28;20045;-71
2023/10/11 10:18:35;;;;;;;5.20;2.88;;;;;;;18.67;100.00;100826.38;6294457;28;20059;-72
2023/10/11 10:22:10;;;;;;;9.38;2.60;;;;;;;18.73;100.00;100828.53;6299434;28;20040;-71
2023/10/11 10:25:20;;;;;;;6.80;3.00;;;;;;;18.82;100.00;100823.38;6289824;28;20049;-72
2023/10/11 10:28:53;;;;;;;10.25;3.00;;;;;;;18.83;100.00;100822.41;6274351;28;20434;-76
2023/10/11 10:32:08;;;;;;;10.93;3.22;;;;;;;18.92;100.00;100818.94;6274722;28;20076;-74
2023/10/11 10:35:36;;;;;;;7.93;3.28;;;;;;;18.95;100.00;100822.19;6291013;28;20056;-77
2023/10/11 10:39:36;;;;;;;7.27;2.83;;;;;;;19.04;100.00;100825.88;6295395;28;20334;-75
2023/10/11 10:42:36;;;;;;;6.53;2.60;;;;;;;19.11;100.00;100834.16;6295181;28;20051;-76
2023/10/11 10:45:37;;;;;;;12.65;3.90;;;;;;;19.12;100.00;100839.38;6303568;28;20049;-74
2023/10/11 10:48:40;;;;;;;10.18;2.97;;;;;;;19.26;100.00;100832.81;6303817;28;20488;-74
2023/10/11 10:51:47;;;;;;;8.82;2.78;;;;;;;19.38;100.00;100831.69;6303268;28;20056;-74
2023/10/11 10:54:56;;;;;;;10.80;3.63;;;;;;;19.40;100.00;100827.09;6295310;28;20356;-75
2023/10/11 10:57:59;;;;;;;7.60;2.90;;;;;;;19.45;100.00;100824.03;6303496;28;20064;-75
2023/10/11 11:01:00;;;;;;;10.73;4.32;;;;;;;19.48;100.00;100831.72;6303486;28;20048;-75
2023/10/11 11:04:06;;;;;;;9.05;3.50;;;;;;;19.58;100.00;100829.09;6292960;28;20356;-76
2023/10/11 11:07:12;;;;;;;11.50;2.90;;;;;;;19.58;100.00;100843.28;6283277;28;20055;-76
2023/10/11 11:10:18;;;;;;;10.02;2.90;;;;;;;19.55;100.00;100845.34;6294148;28;20460;-76
2023/10/11 11:13:21;;;;;;;10.68;3.05;;;;;;;19.58;100.00;100855.75;6295075;28;20052;-76
2023/10/11 11:16:26;;;;;;;11.32;2.70;;;;;;;19.57;100.00;100862.88;6303131;28;20068;-76
2023/10/11 11:19:30;;;;;;;9.07;3.35;;;;;;;19.48;100.00;100872.56;6303504;28;20075;-75
2023/10/11 11:22:38;;;;;;;18.83;3.58;;;;;;;19.47;100.00;100878.88;6302959;28;20352;-76
2023/10/11 11:25:39;;;;;;;7.68;2.80;;;;;;;19.42;100.00;100875.75;6295992;28;20081;-75
2023/10/11 11:28:43;;;;;;;7.50;2.72;;;;;;;19.46;100.00;100876.34;6279272;28;20049;-77
2023/10/11 11:31:51;;;;;;;10.48;3.03;;;;;;;19.32;100.00;100855.41;6287688;28;20060;-75
2023/10/11 11:35:02;;;;;;;8.13;3.40;;;;;;;19.32;100.00;100864.25;6280186;28;20070;-75
2023/10/11 11:38:05;;;;;;;6.47;2.95;;;;;;;19.21;100.00;100873.19;6285817;28;20131;-76
2023/10/11 11:41:15;;;;;;;6.90;3.53;;;;;;;19.11;100.00;100882.94;6299538;28;20420;-76
2023/10/11 11:44:21;;;;;;;7.18;3.30;;;;;;;19.08;100.00;100883.22;6295305;28;20052;-75
2023/10/11 11:47:21;;;;;;;8.40;3.42;;;;;;;18.91;100.00;100882.00;6297651;28;20360;-77
2023/10/11 11:50:23;;;;;;;9.30;3.13;;;;;;;18.85;100.00;100890.53;6298367;28;20055;-76
2023/10/11 11:53:25;;;;;;;10.93;4.15;;;;;;;18.69;100.00;100880.34;6298669;28;20356;-76
2023/10/11 11:56:28;;;;;;;7.90;3.40;;;;;;;18.67;100.00;100882.28;6293149;28;20045;-77
2023/10/11 11:59:29;;;;;;;6.30;3.40;;;;;;;18.69;100.00;100884.81;6297480;28;20372;-77
2023/10/11 12:02:31;;;;;;;7.20;3.72;;;;;;;18.56;100.00;100889.47;6292621;28;20045;-77
2023/10/11 12:05:37;;;;;;;9.27;3.38;;;;;;;18.31;100.00;100872.94;6302440;28;20052;-77
2023/10/11 12:08:38;;;;;;;5.45;3.55;;;;;;;18.25;100.00;100870.75;6299030;28;20118;-77
2023/10/11 12:11:45;;;;;;;6.30;3.42;;;;;;;18.11;100.00;100860.44;6293288;28;20051;-77
2023/10/11 12:14:49;;;;;;;9.43;3.53;;;;;;;18.13;100.00;100855.84;6290663;28;20052;-77
2023/10/11 12:17:53;;;;;;;7.95;3.60;;;;;;;18.09;100.00;100852.59;6297482;28;20459;-75
2023/10/11 12:20:54;;;;;;;7.20;3.65;;;;;;;18.15;100.00;100859.19;6292724;28;20056;-75
2023/10/11 12:23:56;;;;;;;5.20;3.40;;;;;;;18.11;100.00;100853.28;6296535;28;20063;-78
2023/10/11 12:26:58;;;;;;;11.77;4.72;;;;;;;18.10;100.00;100854.25;6280010;28;20052;-79
2023/10/11 12:30:01;;;;;;;8.93;3.60;;;;;;;18.13;100.00;100856.69;6290187;28;20048;-76
2023/10/11 12:33:06;;;;;;;10.38;3.97;;;;;;;18.18;100.00;100845.66;6291528;28;20070;-75
2023/10/11 12:36:08;;;;;;;10.23;3.80;;;;;;;18.22;100.00;100839.13;6288181;28;20040;-77
2023/10/11 12:39:20;;;;;;;9.57;3.72;;;;;;;18.22;100.00;100829.31;6298924;28;20060;-75
2023/10/11 12:42:22;;;;;;;6.72;3.65;;;;;;;18.30;100.00;100815.34;6290523;28;20048;-76
2023/10/11 12:45:25;;;;;;;4.70;3.25;;;;;;;18.34;100.00;100830.06;6294776;28;20049;-78
2023/10/11 12:48:27;;;;;;;7.15;3.47;;;;;;;18.39;100.00;100822.53;6300487;28;20052;-78
2023/10/11 12:51:28;;;;;;;5.38;3.22;;;;;;;18.43;100.00;100815.97;6298165;28;20485;-78
2023/10/11 12:54:31;;;;;;;8.40;3.58;;;;;;;18.40;100.00;100820.75;6295229;28;20420;-79
2023/10/11 12:57:32;;;;;;;11.05;4.15;;;;;;;18.38;100.00;100825.34;6300595;28;20174;-77
2023/10/11 13:00:37;;;;;;;6.07;3.40;;;;;;;18.33;100.00;100806.25;6291869;28;20135;-77
2023/10/11 13:03:39;;;;;;;6.88;3.25;;;;;;;18.38;100.00;100799.56;6299848;28;20432;-78
2023/10/11 13:06:49;;;;;;;8.63;3.72;;;;;;;18.41;100.00;100806.47;6300407;28;20099;-78
2023/10/11 13:09:50;;;;;;;12.45;4.35;;;;;;;18.33;100.00;100831.06;6298334;28;20048;-79
2023/10/11 13:12:53;;;;;;;8.07;3.80;;;;;;;18.30;100.00;100836.63;6291524;28;20356;-77
2023/10/11 13:15:59;;;;;;;9.55;4.38;;;;;;;18.29;100.00;100845.59;6294402;28;20045;-76
2023/10/11 13:19:00;;;;;;;10.93;4.03;;;;;;;18.27;100.00;100857.34;6299072;28;20055;-77
2023/10/11 13:22:09;;;;;;;8.93;3.88;;;;;;;18.19;100.00;100860.63;6300603;28;20051;-76
2023/10/11 13:25:22;;;;;;;10.27;3.50;;;;;;;18.23;100.00;100854.94;6300756;28;20052;-77
2023/10/11 13:28:26;;;;;;;10.60;3.33;;;;;;;18.27;100.00;100855.53;6300380;28;20060;-77
2023/10/11 13:31:29;;;;;;;7.47;3.88;;;;;;;18.34;100.00;100853.19;6300203;28;20052;-78
2023/10/11 13:34:33;;;;;;;6.07;3.50;;;;;;;18.33;100.00;100862.13;6300245;28;20440;-78
2023/10/11 13:37:34;;;;;;;8.25;4.20;;;;;;;18.47;100.00;100859.16;6300407;28;20441;-77
2023/10/11 13:40:37;;;;;;;7.65;3.45;;;;;;;18.63;100.00;100858.72;6299915;28;20064;-78
2023/10/11 13:43:39;;;;;;;14.05;4.45;;;;;;;18.58;100.00;100850.28;6300484;28;20049;-77
2023/10/11 13:46:41;;;;;;;9.65;4.75;;;;;;;18.64;100.00;100839.09;6300100;28;20048;-78
2023/10/11 13:49:47;;;;;;;7.53;3.75;;;;;;;18.69;100.00;100839.56;6294774;28;20049;-77
2023/10/11 13:52:51;;;;;;;11.27;4.43;;;;;;;18.73;100.00;100847.16;6294694;28;20051;-77
2023/10/11 13:55:53;;;;;;;10.10;4.47;;;;;;;18.70;100.00;100849.25;6291118;28;20348;-77
2023/10/11 13:58:55;;;;;;;9.23;3.95;;;;;;;18.73;100.00;100833.84;6286391;28;20056;-77
2023/10/11 14:02:00;;;;;;;8.93;4.43;;;;;;;18.66;100.00;100840.63;6293328;28;20457;-77
2023/10/11 14:05:14;;;;;;;8.60;4.00;;;;;;;18.69;100.00;100829.75;6298310;28;20049;-78
2023/10/11 14:08:24;;;;;;;7.70;4.32;;;;;;;18.62;100.00;100820.59;6299982;28;20052;-78
2023/10/11 14:11:25;;;;;;;8.70;4.00;;;;;;;18.71;100.00;100819.84;6297489;28;20044;-78
2023/10/11 14:14:32;;;;;;;7.55;3.88;;;;;;;18.77;100.00;100810.47;6297156;28;20191;-77
2023/10/11 14:17:38;;;;;;;7.47;3.63;;;;;;;18.77;100.00;100807.81;6302178;28;20049;-78
2023/10/11 14:20:45;;;;;;;11.18;4.75;;;;;;;18.69;100.00;100802.31;6290488;28;20415;-78
2023/10/11 14:23:49;;;;;;;7.68;4.03;;;;;;;18.78;100.00;100800.66;6301029;28;20123;-78
2023/10/11 14:26:50;;;;;;;9.13;3.80;;;;;;;18.80;100.00;100798.69;6296654;28;20037;-80
2023/10/11 14:29:51;;;;;;;8.77;3.67;;;;;;;18.81;100.00;100795.06;6292407;28;20059;-80